地図

経路データ

SID SEASON NUMBER BASIN SUBBASIN NAME ISO_TIME NATURE LAT LON WMO_WIND WMO_PRES WMO_AGENCY TRACK_TYPE DIST2LAND LANDFALL IFLAG USA_AGENCY USA_ATCF_ID USA_LAT USA_LON USA_RECORD USA_STATUS USA_WIND USA_PRES USA_SSHS USA_R34_NE USA_R34_SE USA_R34_SW USA_R34_NW USA_R50_NE USA_R50_SE USA_R50_SW USA_R50_NW USA_R64_NE USA_R64_SE USA_R64_SW USA_R64_NW USA_POCI USA_ROCI USA_RMW USA_EYE TOKYO_LAT TOKYO_LON TOKYO_GRADE TOKYO_WIND TOKYO_PRES TOKYO_R50_DIR TOKYO_R50_LONG TOKYO_R50_SHORT TOKYO_R30_DIR TOKYO_R30_LONG TOKYO_R30_SHORT TOKYO_LAND CMA_LAT CMA_LON CMA_CAT CMA_WIND CMA_PRES HKO_LAT HKO_LON HKO_CAT HKO_WIND HKO_PRES NEWDELHI_LAT NEWDELHI_LON NEWDELHI_GRADE NEWDELHI_WIND NEWDELHI_PRES NEWDELHI_CI NEWDELHI_DP NEWDELHI_POCI REUNION_LAT REUNION_LON REUNION_TYPE REUNION_WIND REUNION_PRES REUNION_TNUM REUNION_CI REUNION_RMW REUNION_R34_NE REUNION_R34_SE REUNION_R34_SW REUNION_R34_NW REUNION_R50_NE REUNION_R50_SE REUNION_R50_SW REUNION_R50_NW REUNION_R64_NE REUNION_R64_SE REUNION_R64_SW REUNION_R64_NW BOM_LAT BOM_LON BOM_TYPE BOM_WIND BOM_PRES BOM_TNUM BOM_CI BOM_RMW BOM_R34_NE BOM_R34_SE BOM_R34_SW BOM_R34_NW BOM_R50_NE BOM_R50_SE BOM_R50_SW BOM_R50_NW BOM_R64_NE BOM_R64_SE BOM_R64_SW BOM_R64_NW BOM_ROCI BOM_POCI BOM_EYE BOM_POS_METHOD BOM_PRES_METHOD NADI_LAT NADI_LON NADI_CAT NADI_WIND NADI_PRES WELLINGTON_LAT WELLINGTON_LON WELLINGTON_WIND WELLINGTON_PRES DS824_LAT DS824_LON DS824_STAGE DS824_WIND DS824_PRES TD9636_LAT TD9636_LON TD9636_STAGE TD9636_WIND TD9636_PRES TD9635_LAT TD9635_LON TD9635_WIND TD9635_PRES TD9635_ROCI NEUMANN_LAT NEUMANN_LON NEUMANN_CLASS NEUMANN_WIND NEUMANN_PRES MLC_LAT MLC_LON MLC_CLASS MLC_WIND MLC_PRES USA_GUST BOM_GUST BOM_GUST_PER REUNION_GUST REUNION_GUST_PER USA_SEAHGT USA_SEARAD_NE USA_SEARAD_SE USA_SEARAD_SW USA_SEARAD_NW STORM_SPEED STORM_DIR
1932191N19087 1932 33 NI BB NOT_NAMED 1932-07-09 00:00:00 TS 18.5000 86.8000 main 172 151 _________O____ -1 18.5000 86.8000 TC 30 4 348
1932191N19087 1932 33 NI BB NOT_NAMED 1932-07-09 03:00:00 TS 18.6733 86.7550 main 151 127 _________PO___ -1 18.7600 86.7326 TC 30 18.5000 86.8000 1 4 351
1932191N19087 1932 33 NI BB NOT_NAMED 1932-07-09 06:00:00 TS 18.8906 86.7301 main 127 105 _________OP___ -1 19.0000 86.7000 TC 30 18.7266 86.7752 1 4 0
1932191N19087 1932 33 NI BB NOT_NAMED 1932-07-09 09:00:00 TS 19.0982 86.7415 main 105 88 _________PP___ -1 19.2075 86.7275 TC 30 18.9525 86.7602 1 4 8
1932191N19087 1932 33 NI BB NOT_NAMED 1932-07-09 12:00:00 TS 19.2886 86.7826 main 88 69 _________OP___ -1 19.4000 86.8000 TC 30 19.1772 86.7652 1 4 13
1932191N19087 1932 33 NI BB NOT_NAMED 1932-07-09 15:00:00 TS 19.5000 86.8463 main 69 62 _________PO___ -1 19.6000 86.8925 TC 30 19.4000 86.8000 1 4 19
1932191N19087 1932 33 NI BB NOT_NAMED 1932-07-09 18:00:00 TS 19.7097 86.9355 main 62 54 _________OP___ -1 19.8000 87.0000 TC 30 19.6194 86.8711 1 5 23
1932191N19087 1932 33 NI BB NOT_NAMED 1932-07-09 21:00:00 TS 19.9225 87.0349 main 54 47 _________PP___ -1 20.0150 87.1000 TC 30 19.8300 86.9698 1 4 26
1932191N19087 1932 33 NI BB NOT_NAMED 1932-07-10 00:00:00 TS 20.1128 87.1418 main 47 47 _________OP___ -1 20.2000 87.2000 TC 30 20.0257 87.0836 1 4 31
1932191N19087 1932 33 NI BB NOT_NAMED 1932-07-10 03:00:00 TS 20.2537 87.2500 main 53 45 _________PO___ -1 20.3075 87.3001 TC 30 20.2000 87.2000 1 3 38
1932191N19087 1932 33 NI BB NOT_NAMED 1932-07-10 06:00:00 TS 20.3733 87.3561 main 53 47 _________OP___ -1 20.4000 87.4000 TC 30 20.3466 87.3122 1 3 38
1932191N19087 1932 33 NI BB NOT_NAMED 1932-07-10 09:00:00 TS 20.5113 87.4650 main 56 53 _________PP___ -1 20.5500 87.5075 TC 30 20.4725 87.4225 1 3 35
1932191N19087 1932 33 NI BB NOT_NAMED 1932-07-10 12:00:00 TS 20.6436 87.5608 main 63 62 _________OP___ -1 20.7000 87.6000 TC 30 20.5872 87.5216 1 3 33
1932191N19087 1932 33 NI BB NOT_NAMED 1932-07-10 15:00:00 TS 20.7500 87.6325 main 62 62 _________PO___ -1 20.8000 87.6650 TC 30 20.7000 87.6000 1 3 24
1932191N19087 1932 33 NI BB NOT_NAMED 1932-07-10 18:00:00 TS 20.8686 87.6753 main 73 73 _________OP___ -1 20.9000 87.7000 TC 30 20.8372 87.6507 1 3 12
1932191N19087 1932 33 NI BB NOT_NAMED 1932-07-10 21:00:00 TS 21.0150 87.6938 main 73 63 _________PP___ -1 21.0575 87.7075 TC 30 20.9725 87.6801 1 3 1
1932191N19087 1932 33 NI BB NOT_NAMED 1932-07-11 00:00:00 TS 21.1483 87.6972 main 63 54 _________OP___ -1 21.2000 87.7000 TC 30 21.0965 87.6944 1 2 0
1932191N19087 1932 33 NI BB NOT_NAMED 1932-07-11 03:00:00 TS 21.2325 87.7000 main 54 44 _________PO___ -1 21.2650 87.7000 TC 30 21.2000 87.7000 1 1 0
1932191N19087 1932 33 NI BB NOT_NAMED 1932-07-11 06:00:00 TS 21.2858 87.7056 main 44 44 _________OP___ -1 21.3000 87.7000 TC 30 21.2716 87.7113 1 1 8
1932191N19087 1932 33 NI BB NOT_NAMED 1932-07-11 09:00:00 TS 21.3362 87.7075 main 44 33 _________PP___ -1 21.3500 87.7000 TC 30 21.3225 87.7150 1 1 10
1932191N19087 1932 33 NI BB NOT_NAMED 1932-07-11 12:00:00 TS 21.3811 87.7056 main 33 33 _________OP___ -1 21.4000 87.7000 TC 30 21.3622 87.7113 1 1 0
1932191N19087 1932 33 NI BB NOT_NAMED 1932-07-11 15:00:00 TS 21.4250 87.7037 main 33 22 _________PO___ -1 21.4500 87.7075 TC 30 21.4000 87.7000 1 1 14
1932191N19087 1932 33 NI BB NOT_NAMED 1932-07-11 18:00:00 TS 21.4828 87.7338 main 22 22 _________OP___ -1 21.5000 87.7000 TC 30 21.4656 87.7675 1 1 31
1932191N19087 1932 33 NI BB NOT_NAMED 1932-07-11 21:00:00 TS 21.5430 87.7738 main 22 11 _________PP___ -1 21.5572 87.7325 TC 30 21.5288 87.8151 1 1 341
1932191N19087 1932 33 NI BB NOT_NAMED 1932-07-12 00:00:00 TS 21.5888 87.6901 main 11 0 _________OP___ -1 21.6000 87.6000 TC 30 21.5776 87.7802 1 4 280
1932191N19087 1932 33 NI BB NOT_NAMED 1932-07-12 03:00:00 TS 21.6114 87.3626 main 0 0 _________PO___ -1 21.6228 87.1251 TC 30 21.6000 87.6000 1 8 270
1932191N19087 1932 33 NI BB NOT_NAMED 1932-07-12 06:00:00 TS 21.5879 86.8462 main 0 0 _________OP___ -1 21.6000 86.5000 TC 30 21.5758 87.1924 1 10 265
1932191N19087 1932 33 NI BB NOT_NAMED 1932-07-12 09:00:00 TS 21.5158 86.2921 main 0 0 _________PP___ -1 21.5074 85.9423 TC 30 21.5241 86.6418 1 11 262
1932191N19087 1932 33 NI BB NOT_NAMED 1932-07-12 12:00:00 TS 21.4301 85.7102 main 0 0 _________OP___ -1 21.4000 85.4000 TC 30 21.4602 86.0204 1 11 262
1932191N19087 1932 33 NI BB NOT_NAMED 1932-07-12 15:00:00 TS 21.3674 85.1463 main 0 0 _________PO___ -1 21.3348 84.8926 TC 30 21.4000 85.4000 1 10 264
1932191N19087 1932 33 NI BB NOT_NAMED 1932-07-12 18:00:00 TS 21.3217 84.6265 main 0 0 _________OP___ -1 21.3000 84.4000 TC 30 21.3434 84.8529 1 10 265
1932191N19087 1932 33 NI BB NOT_NAMED 1932-07-12 21:00:00 TS 21.2876 84.0973 main 0 0 _________PP___ -1 21.2776 83.8700 TC 30 21.2975 84.3246 1 9 268
1932191N19087 1932 33 NI BB NOT_NAMED 1932-07-13 00:00:00 TS 21.2889 83.6170 main 0 0 _________OP___ -1 21.3000 83.4000 TC 30 21.2779 83.8341 1 8 274
1932191N19087 1932 33 NI BB NOT_NAMED 1932-07-13 03:00:00 TS 21.3386 83.2350 main 0 0 _________PO___ -1 21.3772 83.0700 TC 30 21.3000 83.4000 1 7 283
1932191N19087 1932 33 NI BB NOT_NAMED 1932-07-13 06:00:00 TS 21.4406 82.9194 main 0 0 _________OP___ -1 21.5000 82.8000 TC 30 21.3811 83.0388 1 6 292
1932191N19087 1932 33 NI BB NOT_NAMED 1932-07-13 09:00:00 TS 21.5733 82.6127 main 0 0 _________PP___ -1 21.6425 82.4925 TC 30 21.5041 82.7329 1 6 297
1932191N19087 1932 33 NI BB NOT_NAMED 1932-07-13 12:00:00 TS 21.7250 82.3303 main 0 0 _________OP___ -1 21.8000 82.2000 TC 30 21.6500 82.4605 1 6 301
1932191N19087 1932 33 NI BB NOT_NAMED 1932-07-13 15:00:00 TS 21.8787 82.0750 main 0 0 _________PO___ -1 21.9574 81.9499 TC 30 21.8000 82.2000 1 6 301
1932191N19087 1932 33 NI BB NOT_NAMED 1932-07-13 18:00:00 TS 22.0144 81.8109 main 0 0 _________OP___ -1 22.1000 81.7000 TC 30 21.9288 81.9217 1 6 297
1932191N19087 1932 33 NI BB NOT_NAMED 1932-07-13 21:00:00 TS 22.1323 81.5286 main 0 0 _________PP___ -1 22.2075 81.4074 TC 30 22.0572 81.6498 1 6 293
1932191N19087 1932 33 NI BB NOT_NAMED 1932-07-14 00:00:00 TS 22.2410 81.2390 main 0 0 _________OP___ -1 22.3000 81.1000 TC 30 22.1819 81.3780 1 6 292
1932191N19087 1932 33 NI BB NOT_NAMED 1932-07-14 03:00:00 TS 22.3500 80.9500 main 0 0 _________PO___ -1 22.3999 80.8000 TC 30 22.3000 81.1000 1 6 291
1932191N19087 1932 33 NI BB NOT_NAMED 1932-07-14 06:00:00 TS 22.4496 80.6474 main 0 0 _________OP___ -1 22.5000 80.5000 TC 30 22.3991 80.7948 1 6 289
1932191N19087 1932 33 NI BB NOT_NAMED 1932-07-14 09:00:00 TS 22.5425 80.3386 main 0 0 _________PP___ -1 22.5925 80.1924 TC 30 22.4926 80.4847 1 6 289
1932191N19087 1932 33 NI BB NOT_NAMED 1932-07-14 12:00:00 TS 22.6449 80.0411 main 0 0 _________OP___ -1 22.7000 79.9000 TC 30 22.5898 80.1823 1 6 294
1932191N19087 1932 33 NI BB NOT_NAMED 1932-07-14 15:00:00 TS 22.7712 79.7675 main 0 0 _________PO___ -1 22.8425 79.6350 TC 30 22.7000 79.9000 1 5 299
1932191N19087 1932 33 NI BB NOT_NAMED 1932-07-14 18:00:00 TS 22.9030 79.5411 main 0 0 _________OP___ -1 23.0000 79.4000 TC 30 22.8303 79.6468 1 5 304
1932191N19087 1932 33 NI BB NOT_NAMED 1932-07-14 21:00:00 TS 23.0475 79.3278 main 0 0 _________PP___ -1 23.1525 79.1926 TC 30 22.9775 79.4180 1 5 308
1932191N19087 1932 33 NI BB NOT_NAMED 1932-07-15 00:00:00 TS 23.1907 79.1367 main 0 0 _________OP___ -1 23.3000 79.0000 TC 30 23.1360 79.2051 1 4 310
1932191N19087 1932 33 NI BB NOT_NAMED 1932-07-15 03:00:00 NR 23.3000 79.0000 main 0 __________O___ -1 TC 23.3000 79.0000 1 3 311

IBTrACS Databaseについて

本データベースは、米国NOAAが公開する1842年以降の世界の熱帯低気圧のベストトラックデータアーカイブInternational Best Track Archive for Climate Stewardship (IBTrACS)を、ウェブで閲覧しやすい形式に変換したものです。

最終更新日:2021-11-26